sensor_id;sensor_type;location;lat;lon;timestamp;temperature;humidity
15131;DHT22;7666;50.920;4.628;2022-11-20T00:02:10;3.90;99.90
15131;DHT22;7666;50.920;4.628;2022-11-20T00:04:56;3.90;99.90
15131;DHT22;7666;50.920;4.628;2022-11-20T00:07:42;4.00;99.90
15131;DHT22;7666;50.920;4.628;2022-11-20T00:10:28;4.10;99.90
15131;DHT22;7666;50.920;4.628;2022-11-20T00:13:13;4.20;99.90
15131;DHT22;7666;50.920;4.628;2022-11-20T00:16:01;4.20;99.90
15131;DHT22;7666;50.920;4.628;2022-11-20T00:18:47;4.30;99.90
15131;DHT22;7666;50.920;4.628;2022-11-20T00:21:33;4.30;99.90
15131;DHT22;7666;50.920;4.628;2022-11-20T00:24:19;4.30;99.90
15131;DHT22;7666;50.920;4.628;2022-11-20T00:27:05;4.30;99.90
15131;DHT22;7666;50.920;4.628;2022-11-20T00:29:51;4.30;99.90
15131;DHT22;7666;50.920;4.628;2022-11-20T00:32:37;4.30;99.90
15131;DHT22;7666;50.920;4.628;2022-11-20T00:35:23;4.40;99.90
15131;DHT22;7666;50.920;4.628;2022-11-20T00:38:09;4.40;99.90
15131;DHT22;7666;50.920;4.628;2022-11-20T00:41:00;4.40;99.90
15131;DHT22;7666;50.920;4.628;2022-11-20T00:43:46;4.40;99.90
15131;DHT22;7666;50.920;4.628;2022-11-20T00:46:32;4.40;99.90
15131;DHT22;7666;50.920;4.628;2022-11-20T00:49:18;4.50;99.90
15131;DHT22;7666;50.920;4.628;2022-11-20T00:52:04;4.50;99.90
15131;DHT22;7666;50.920;4.628;2022-11-20T00:54:50;4.50;99.90
15131;DHT22;7666;50.920;4.628;2022-11-20T00:57:36;4.50;99.90
15131;DHT22;7666;50.920;4.628;2022-11-20T01:00:22;4.50;99.90
15131;DHT22;7666;50.920;4.628;2022-11-20T01:03:08;4.50;99.90
15131;DHT22;7666;50.920;4.628;2022-11-20T01:05:54;4.50;99.90
15131;DHT22;7666;50.920;4.628;2022-11-20T01:08:40;4.50;99.90
15131;DHT22;7666;50.920;4.628;2022-11-20T01:11:34;4.40;99.90
15131;DHT22;7666;50.920;4.628;2022-11-20T01:14:21;4.40;99.90
15131;DHT22;7666;50.920;4.628;2022-11-20T01:17:07;4.40;99.90
15131;DHT22;7666;50.920;4.628;2022-11-20T01:19:52;4.50;99.90
15131;DHT22;7666;50.920;4.628;2022-11-20T01:22:38;4.40;99.90
15131;DHT22;7666;50.920;4.628;2022-11-20T01:25:24;4.40;99.90
15131;DHT22;7666;50.920;4.628;2022-11-20T01:28:10;4.40;99.90
15131;DHT22;7666;50.920;4.628;2022-11-20T01:30:57;4.40;99.90
15131;DHT22;7666;50.920;4.628;2022-11-20T01:33:45;4.40;99.90
15131;DHT22;7666;50.920;4.628;2022-11-20T01:36:32;4.50;99.90
15131;DHT22;7666;50.920;4.628;2022-11-20T01:39:25;4.50;99.90
15131;DHT22;7666;50.920;4.628;2022-11-20T01:42:12;4.50;99.90
15131;DHT22;7666;50.920;4.628;2022-11-20T01:45:50;4.50;99.90
15131;DHT22;7666;50.920;4.628;2022-11-20T01:49:06;4.50;99.90
15131;DHT22;7666;50.920;4.628;2022-11-20T01:52:04;4.50;99.90
15131;DHT22;7666;50.920;4.628;2022-11-20T01:55:13;4.50;99.90
15131;DHT22;7666;50.920;4.628;2022-11-20T01:58:01;4.50;99.90
15131;DHT22;7666;50.920;4.628;2022-11-20T02:00:48;4.50;99.90
15131;DHT22;7666;50.920;4.628;2022-11-20T02:03:34;4.50;99.90
15131;DHT22;7666;50.920;4.628;2022-11-20T02:06:27;4.50;99.90
15131;DHT22;7666;50.920;4.628;2022-11-20T02:09:16;4.50;99.90
15131;DHT22;7666;50.920;4.628;2022-11-20T02:12:03;4.50;99.90
15131;DHT22;7666;50.920;4.628;2022-11-20T02:14:49;4.40;99.90
15131;DHT22;7666;50.920;4.628;2022-11-20T02:17:35;4.40;99.90
15131;DHT22;7666;50.920;4.628;2022-11-20T02:20:21;4.40;99.90
15131;DHT22;7666;50.920;4.628;2022-11-20T02:23:31;4.40;99.90
15131;DHT22;7666;50.920;4.628;2022-11-20T02:26:20;4.30;99.90
15131;DHT22;7666;50.920;4.628;2022-11-20T02:29:06;4.30;99.90
15131;DHT22;7666;50.920;4.628;2022-11-20T02:31:53;4.40;99.90
15131;DHT22;7666;50.920;4.628;2022-11-20T02:34:40;4.40;99.90
15131;DHT22;7666;50.920;4.628;2022-11-20T02:37:35;4.30;99.90
15131;DHT22;7666;50.920;4.628;2022-11-20T02:40:22;4.30;99.90
15131;DHT22;7666;50.920;4.628;2022-11-20T02:43:08;4.40;99.90
15131;DHT22;7666;50.920;4.628;2022-11-20T02:45:55;4.40;99.90
15131;DHT22;7666;50.920;4.628;2022-11-20T02:48:41;4.40;99.90
15131;DHT22;7666;50.920;4.628;2022-11-20T02:51:27;4.40;99.90
15131;DHT22;7666;50.920;4.628;2022-11-20T02:54:13;4.40;99.90
15131;DHT22;7666;50.920;4.628;2022-11-20T02:56:59;4.30;99.90
15131;DHT22;7666;50.920;4.628;2022-11-20T02:59:45;4.30;99.90
15131;DHT22;7666;50.920;4.628;2022-11-20T03:02:31;4.20;99.90
15131;DHT22;7666;50.920;4.628;2022-11-20T03:05:17;4.20;99.90
15131;DHT22;7666;50.920;4.628;2022-11-20T03:08:03;4.30;99.90
15131;DHT22;7666;50.920;4.628;2022-11-20T03:10:49;4.30;99.90
15131;DHT22;7666;50.920;4.628;2022-11-20T03:13:35;4.30;99.90
15131;DHT22;7666;50.920;4.628;2022-11-20T03:16:22;4.30;99.90
15131;DHT22;7666;50.920;4.628;2022-11-20T03:19:08;4.30;99.90
15131;DHT22;7666;50.920;4.628;2022-11-20T03:21:54;4.40;99.90
15131;DHT22;7666;50.920;4.628;2022-11-20T03:24:40;4.40;99.90
15131;DHT22;7666;50.920;4.628;2022-11-20T03:27:26;4.40;99.90
15131;DHT22;7666;50.920;4.628;2022-11-20T03:30:13;4.30;99.90
15131;DHT22;7666;50.920;4.628;2022-11-20T03:32:59;4.30;99.90
15131;DHT22;7666;50.920;4.628;2022-11-20T03:35:45;4.30;99.90
15131;DHT22;7666;50.920;4.628;2022-11-20T03:38:31;4.30;99.90
15131;DHT22;7666;50.920;4.628;2022-11-20T03:41:20;4.40;99.90
15131;DHT22;7666;50.920;4.628;2022-11-20T03:44:08;4.40;99.90
15131;DHT22;7666;50.920;4.628;2022-11-20T03:46:54;4.40;99.90
15131;DHT22;7666;50.920;4.628;2022-11-20T03:49:40;4.40;99.90
15131;DHT22;7666;50.920;4.628;2022-11-20T03:52:26;4.40;99.90
15131;DHT22;7666;50.920;4.628;2022-11-20T03:55:12;4.40;99.90
15131;DHT22;7666;50.920;4.628;2022-11-20T03:57:58;4.50;99.90
15131;DHT22;7666;50.920;4.628;2022-11-20T04:00:44;4.40;99.90
15131;DHT22;7666;50.920;4.628;2022-11-20T04:03:30;4.40;99.90
15131;DHT22;7666;50.920;4.628;2022-11-20T04:06:21;4.40;99.90
15131;DHT22;7666;50.920;4.628;2022-11-20T04:09:07;4.50;99.90
15131;DHT22;7666;50.920;4.628;2022-11-20T04:11:53;4.50;99.90
15131;DHT22;7666;50.920;4.628;2022-11-20T04:14:39;4.50;99.90
15131;DHT22;7666;50.920;4.628;2022-11-20T04:17:25;4.50;99.90
15131;DHT22;7666;50.920;4.628;2022-11-20T04:20:11;4.60;99.90
15131;DHT22;7666;50.920;4.628;2022-11-20T04:22:57;4.50;99.90
15131;DHT22;7666;50.920;4.628;2022-11-20T04:25:43;4.50;99.90
15131;DHT22;7666;50.920;4.628;2022-11-20T04:28:29;4.50;99.90
15131;DHT22;7666;50.920;4.628;2022-11-20T04:31:23;4.40;99.90
15131;DHT22;7666;50.920;4.628;2022-11-20T04:34:11;4.40;99.90
15131;DHT22;7666;50.920;4.628;2022-11-20T04:36:58;4.30;99.90
15131;DHT22;7666;50.920;4.628;2022-11-20T04:39:44;4.10;99.90
15131;DHT22;7666;50.920;4.628;2022-11-20T04:42:30;4.00;99.90
15131;DHT22;7666;50.920;4.628;2022-11-20T04:45:16;3.80;99.90
15131;DHT22;7666;50.920;4.628;2022-11-20T04:48:01;3.60;99.90
15131;DHT22;7666;50.920;4.628;2022-11-20T04:50:47;3.50;99.90
15131;DHT22;7666;50.920;4.628;2022-11-20T04:53:33;3.50;99.90
15131;DHT22;7666;50.920;4.628;2022-11-20T04:56:19;3.50;99.90
15131;DHT22;7666;50.920;4.628;2022-11-20T04:59:05;3.50;99.90
15131;DHT22;7666;50.920;4.628;2022-11-20T05:01:51;3.50;99.90
15131;DHT22;7666;50.920;4.628;2022-11-20T05:04:37;3.40;99.90
15131;DHT22;7666;50.920;4.628;2022-11-20T05:07:23;3.50;99.90
15131;DHT22;7666;50.920;4.628;2022-11-20T05:10:09;3.50;99.90
15131;DHT22;7666;50.920;4.628;2022-11-20T05:12:57;3.40;99.90
15131;DHT22;7666;50.920;4.628;2022-11-20T05:15:42;3.50;99.90
15131;DHT22;7666;50.920;4.628;2022-11-20T05:18:28;3.50;99.90
15131;DHT22;7666;50.920;4.628;2022-11-20T05:21:15;3.60;99.90
15131;DHT22;7666;50.920;4.628;2022-11-20T05:24:01;3.60;99.90
15131;DHT22;7666;50.920;4.628;2022-11-20T05:26:47;3.50;99.90
15131;DHT22;7666;50.920;4.628;2022-11-20T05:29:33;3.50;99.90
15131;DHT22;7666;50.920;4.628;2022-11-20T05:32:19;3.50;99.90
15131;DHT22;7666;50.920;4.628;2022-11-20T05:35:05;3.60;99.90
15131;DHT22;7666;50.920;4.628;2022-11-20T05:37:51;3.70;99.90
15131;DHT22;7666;50.920;4.628;2022-11-20T05:40:37;3.80;99.90
15131;DHT22;7666;50.920;4.628;2022-11-20T05:43:23;3.90;99.90
15131;DHT22;7666;50.920;4.628;2022-11-20T05:46:11;4.00;99.90
15131;DHT22;7666;50.920;4.628;2022-11-20T05:48:57;4.10;99.90
15131;DHT22;7666;50.920;4.628;2022-11-20T05:51:43;4.00;99.90
15131;DHT22;7666;50.920;4.628;2022-11-20T05:54:29;3.90;99.90
15131;DHT22;7666;50.920;4.628;2022-11-20T05:57:16;3.80;99.90
15131;DHT22;7666;50.920;4.628;2022-11-20T06:00:03;3.70;99.90
15131;DHT22;7666;50.920;4.628;2022-11-20T06:02:49;3.70;99.90
15131;DHT22;7666;50.920;4.628;2022-11-20T06:05:35;3.70;99.90
15131;DHT22;7666;50.920;4.628;2022-11-20T06:08:21;3.60;99.90
15131;DHT22;7666;50.920;4.628;2022-11-20T06:11:09;3.70;99.90
15131;DHT22;7666;50.920;4.628;2022-11-20T06:13:55;3.70;99.90
15131;DHT22;7666;50.920;4.628;2022-11-20T06:16:41;3.80;99.90
15131;DHT22;7666;50.920;4.628;2022-11-20T06:19:27;3.90;99.90
15131;DHT22;7666;50.920;4.628;2022-11-20T06:22:13;4.00;99.90
15131;DHT22;7666;50.920;4.628;2022-11-20T06:24:59;4.00;99.90
15131;DHT22;7666;50.920;4.628;2022-11-20T06:27:45;4.10;99.90
15131;DHT22;7666;50.920;4.628;2022-11-20T06:30:31;4.10;99.90
15131;DHT22;7666;50.920;4.628;2022-11-20T06:33:17;4.10;99.90
15131;DHT22;7666;50.920;4.628;2022-11-20T06:36:03;4.10;99.90
15131;DHT22;7666;50.920;4.628;2022-11-20T06:38:49;4.20;99.90
15131;DHT22;7666;50.920;4.628;2022-11-20T06:41:35;4.20;99.90
15131;DHT22;7666;50.920;4.628;2022-11-20T06:44:21;4.20;99.90
15131;DHT22;7666;50.920;4.628;2022-11-20T06:47:07;4.20;99.90
15131;DHT22;7666;50.920;4.628;2022-11-20T06:49:53;4.30;99.90
15131;DHT22;7666;50.920;4.628;2022-11-20T06:52:39;4.30;99.90
15131;DHT22;7666;50.920;4.628;2022-11-20T06:55:25;4.30;99.90
15131;DHT22;7666;50.920;4.628;2022-11-20T06:58:12;4.30;99.90
15131;DHT22;7666;50.920;4.628;2022-11-20T07:00:59;4.40;99.90
15131;DHT22;7666;50.920;4.628;2022-11-20T07:03:49;4.40;99.90
15131;DHT22;7666;50.920;4.628;2022-11-20T07:06:35;4.40;99.90
15131;DHT22;7666;50.920;4.628;2022-11-20T07:09:21;4.50;99.90
15131;DHT22;7666;50.920;4.628;2022-11-20T07:12:08;4.50;99.90
15131;DHT22;7666;50.920;4.628;2022-11-20T07:14:54;4.50;99.90
15131;DHT22;7666;50.920;4.628;2022-11-20T07:17:40;4.50;99.90
15131;DHT22;7666;50.920;4.628;2022-11-20T07:20:26;4.50;99.90
15131;DHT22;7666;50.920;4.628;2022-11-20T07:23:12;4.50;99.90
15131;DHT22;7666;50.920;4.628;2022-11-20T07:26:01;4.60;99.90
15131;DHT22;7666;50.920;4.628;2022-11-20T07:28:48;4.60;99.90
15131;DHT22;7666;50.920;4.628;2022-11-20T07:31:34;4.60;99.90
15131;DHT22;7666;50.920;4.628;2022-11-20T07:34:20;4.60;99.90
15131;DHT22;7666;50.920;4.628;2022-11-20T07:37:05;4.70;99.90
15131;DHT22;7666;50.920;4.628;2022-11-20T07:39:51;4.70;99.90
15131;DHT22;7666;50.920;4.628;2022-11-20T07:42:37;4.80;99.90
15131;DHT22;7666;50.920;4.628;2022-11-20T07:45:24;4.80;99.90
15131;DHT22;7666;50.920;4.628;2022-11-20T07:48:10;4.90;99.90
15131;DHT22;7666;50.920;4.628;2022-11-20T07:50:56;4.90;99.90
15131;DHT22;7666;50.920;4.628;2022-11-20T07:53:42;4.90;99.90
15131;DHT22;7666;50.920;4.628;2022-11-20T07:56:28;4.90;99.90
15131;DHT22;7666;50.920;4.628;2022-11-20T07:59:15;4.90;99.90
15131;DHT22;7666;50.920;4.628;2022-11-20T08:02:01;5.00;99.90
15131;DHT22;7666;50.920;4.628;2022-11-20T08:04:47;5.00;99.90
15131;DHT22;7666;50.920;4.628;2022-11-20T08:07:40;5.00;99.90
15131;DHT22;7666;50.920;4.628;2022-11-20T08:10:27;5.00;99.90
15131;DHT22;7666;50.920;4.628;2022-11-20T08:13:13;5.00;99.90
15131;DHT22;7666;50.920;4.628;2022-11-20T08:16:17;5.00;99.90
15131;DHT22;7666;50.920;4.628;2022-11-20T08:19:03;5.00;99.90
15131;DHT22;7666;50.920;4.628;2022-11-20T08:21:49;5.10;99.90
15131;DHT22;7666;50.920;4.628;2022-11-20T08:24:35;5.10;99.90
15131;DHT22;7666;50.920;4.628;2022-11-20T08:27:21;5.10;99.90
15131;DHT22;7666;50.920;4.628;2022-11-20T08:30:08;5.30;99.90
15131;DHT22;7666;50.920;4.628;2022-11-20T08:32:54;5.20;99.90
15131;DHT22;7666;50.920;4.628;2022-11-20T08:35:46;5.30;99.90
15131;DHT22;7666;50.920;4.628;2022-11-20T08:38:32;5.30;99.90
15131;DHT22;7666;50.920;4.628;2022-11-20T08:41:18;5.30;99.90
15131;DHT22;7666;50.920;4.628;2022-11-20T08:44:13;5.30;99.90
15131;DHT22;7666;50.920;4.628;2022-11-20T08:47:00;5.40;99.90
15131;DHT22;7666;50.920;4.628;2022-11-20T08:49:46;5.50;99.90
15131;DHT22;7666;50.920;4.628;2022-11-20T08:52:32;5.60;99.90
15131;DHT22;7666;50.920;4.628;2022-11-20T08:55:18;5.60;99.90
15131;DHT22;7666;50.920;4.628;2022-11-20T08:58:04;5.60;99.90
15131;DHT22;7666;50.920;4.628;2022-11-20T09:00:50;5.60;99.90
15131;DHT22;7666;50.920;4.628;2022-11-20T09:03:37;5.60;99.90
15131;DHT22;7666;50.920;4.628;2022-11-20T09:06:23;5.70;99.90
15131;DHT22;7666;50.920;4.628;2022-11-20T09:09:09;5.70;99.90
15131;DHT22;7666;50.920;4.628;2022-11-20T09:11:54;5.80;99.90
15131;DHT22;7666;50.920;4.628;2022-11-20T09:14:41;5.80;99.90
15131;DHT22;7666;50.920;4.628;2022-11-20T09:17:27;5.80;99.90
15131;DHT22;7666;50.920;4.628;2022-11-20T09:20:14;5.80;99.90
15131;DHT22;7666;50.920;4.628;2022-11-20T09:23:05;5.90;99.90
15131;DHT22;7666;50.920;4.628;2022-11-20T09:25:52;6.00;99.90
15131;DHT22;7666;50.920;4.628;2022-11-20T09:28:38;6.00;99.90
15131;DHT22;7666;50.920;4.628;2022-11-20T09:31:25;6.00;99.90
15131;DHT22;7666;50.920;4.628;2022-11-20T09:34:11;6.00;99.90
15131;DHT22;7666;50.920;4.628;2022-11-20T09:36:57;6.10;99.90
15131;DHT22;7666;50.920;4.628;2022-11-20T09:39:43;6.10;99.90
15131;DHT22;7666;50.920;4.628;2022-11-20T09:42:36;6.20;99.90
15131;DHT22;7666;50.920;4.628;2022-11-20T09:45:39;6.30;99.90
15131;DHT22;7666;50.920;4.628;2022-11-20T09:54:36;6.40;99.90
15131;DHT22;7666;50.920;4.628;2022-11-20T09:57:35;6.40;99.90
15131;DHT22;7666;50.920;4.628;2022-11-20T10:00:22;6.50;99.90
15131;DHT22;7666;50.920;4.628;2022-11-20T10:03:13;6.50;99.90
15131;DHT22;7666;50.920;4.628;2022-11-20T10:06:01;6.60;99.90
15131;DHT22;7666;50.920;4.628;2022-11-20T10:09:28;6.60;99.90
15131;DHT22;7666;50.920;4.628;2022-11-20T10:12:25;6.60;99.90
15131;DHT22;7666;50.920;4.628;2022-11-20T10:28:13;7.00;99.90
15131;DHT22;7666;50.920;4.628;2022-11-20T10:30:42;7.10;99.90
15131;DHT22;7666;50.920;4.628;2022-11-20T10:33:36;7.10;99.90
15131;DHT22;7666;50.920;4.628;2022-11-20T10:36:26;7.10;99.90
15131;DHT22;7666;50.920;4.628;2022-11-20T10:45:53;7.30;99.90
15131;DHT22;7666;50.920;4.628;2022-11-20T10:48:43;7.40;99.90
15131;DHT22;7666;50.920;4.628;2022-11-20T10:51:54;7.40;99.90
15131;DHT22;7666;50.920;4.628;2022-11-20T10:58:12;7.50;99.90
15131;DHT22;7666;50.920;4.628;2022-11-20T11:01:15;7.70;99.90
15131;DHT22;7666;50.920;4.628;2022-11-20T11:04:01;7.80;99.90
15131;DHT22;7666;50.920;4.628;2022-11-20T11:06:48;7.80;99.90
15131;DHT22;7666;50.920;4.628;2022-11-20T11:09:41;7.90;99.90
15131;DHT22;7666;50.920;4.628;2022-11-20T11:12:28;8.10;99.90
15131;DHT22;7666;50.920;4.628;2022-11-20T11:15:28;8.30;99.90
15131;DHT22;7666;50.920;4.628;2022-11-20T11:18:29;8.40;99.90
15131;DHT22;7666;50.920;4.628;2022-11-20T11:21:26;8.50;99.90
15131;DHT22;7666;50.920;4.628;2022-11-20T11:24:29;8.50;99.90
15131;DHT22;7666;50.920;4.628;2022-11-20T11:27:15;8.50;99.90
15131;DHT22;7666;50.920;4.628;2022-11-20T11:30:14;8.60;99.90
15131;DHT22;7666;50.920;4.628;2022-11-20T11:33:08;8.60;99.90
15131;DHT22;7666;50.920;4.628;2022-11-20T11:35:59;8.60;99.90
15131;DHT22;7666;50.920;4.628;2022-11-20T11:38:51;8.60;99.90
15131;DHT22;7666;50.920;4.628;2022-11-20T11:41:38;8.70;99.90
15131;DHT22;7666;50.920;4.628;2022-11-20T11:44:30;8.70;99.90
15131;DHT22;7666;50.920;4.628;2022-11-20T11:50:28;8.80;99.90
15131;DHT22;7666;50.920;4.628;2022-11-20T11:53:17;8.70;99.90
15131;DHT22;7666;50.920;4.628;2022-11-20T11:56:08;8.70;99.90
15131;DHT22;7666;50.920;4.628;2022-11-20T11:58:58;8.80;99.90
15131;DHT22;7666;50.920;4.628;2022-11-20T12:01:52;8.80;99.90
15131;DHT22;7666;50.920;4.628;2022-11-20T12:05:11;8.90;99.90
15131;DHT22;7666;50.920;4.628;2022-11-20T12:08:23;8.90;99.90
15131;DHT22;7666;50.920;4.628;2022-11-20T12:14:45;8.90;99.90
15131;DHT22;7666;50.920;4.628;2022-11-20T12:17:28;8.80;99.90
15131;DHT22;7666;50.920;4.628;2022-11-20T12:20:14;8.80;99.90
15131;DHT22;7666;50.920;4.628;2022-11-20T12:26:05;8.60;99.90
15131;DHT22;7666;50.920;4.628;2022-11-20T12:29:06;8.60;99.90
15131;DHT22;7666;50.920;4.628;2022-11-20T12:32:03;8.60;99.90
15131;DHT22;7666;50.920;4.628;2022-11-20T12:44:12;8.40;99.90
15131;DHT22;7666;50.920;4.628;2022-11-20T12:54:04;8.20;99.90
15131;DHT22;7666;50.920;4.628;2022-11-20T13:06:14;8.10;99.90
15131;DHT22;7666;50.920;4.628;2022-11-20T13:09:01;8.10;99.90
15131;DHT22;7666;50.920;4.628;2022-11-20T13:20:27;8.10;99.90
15131;DHT22;7666;50.920;4.628;2022-11-20T13:23:26;8.10;99.90
15131;DHT22;7666;50.920;4.628;2022-11-20T13:29:11;8.20;99.90
15131;DHT22;7666;50.920;4.628;2022-11-20T13:35:02;8.20;99.90
15131;DHT22;7666;50.920;4.628;2022-11-20T13:38:02;8.20;99.90
15131;DHT22;7666;50.920;4.628;2022-11-20T13:40:55;8.20;99.90
15131;DHT22;7666;50.920;4.628;2022-11-20T13:43:42;8.20;99.90
15131;DHT22;7666;50.920;4.628;2022-11-20T13:46:37;8.10;99.90
15131;DHT22;7666;50.920;4.628;2022-11-20T13:49:39;8.10;99.90
15131;DHT22;7666;50.920;4.628;2022-11-20T13:55:41;8.10;99.90
15131;DHT22;7666;50.920;4.628;2022-11-20T14:01:31;8.00;99.90
15131;DHT22;7666;50.920;4.628;2022-11-20T14:04:23;8.00;99.90
15131;DHT22;7666;50.920;4.628;2022-11-20T14:07:12;8.00;99.90
15131;DHT22;7666;50.920;4.628;2022-11-20T14:09:58;8.00;99.90
15131;DHT22;7666;50.920;4.628;2022-11-20T14:12:44;8.10;99.90
15131;DHT22;7666;50.920;4.628;2022-11-20T14:15:32;8.10;99.90
15131;DHT22;7666;50.920;4.628;2022-11-20T14:18:20;8.10;99.90
15131;DHT22;7666;50.920;4.628;2022-11-20T14:21:09;8.10;99.90
15131;DHT22;7666;50.920;4.628;2022-11-20T14:24:06;8.10;99.90
15131;DHT22;7666;50.920;4.628;2022-11-20T14:26:52;8.10;99.90
15131;DHT22;7666;50.920;4.628;2022-11-20T14:29:38;8.20;99.90
15131;DHT22;7666;50.920;4.628;2022-11-20T14:32:28;8.20;99.90
15131;DHT22;7666;50.920;4.628;2022-11-20T14:38:14;8.10;99.90
15131;DHT22;7666;50.920;4.628;2022-11-20T14:41:09;8.10;99.90
15131;DHT22;7666;50.920;4.628;2022-11-20T14:44:01;8.10;99.90
15131;DHT22;7666;50.920;4.628;2022-11-20T14:46:48;8.10;99.90
15131;DHT22;7666;50.920;4.628;2022-11-20T14:49:35;8.10;99.90
15131;DHT22;7666;50.920;4.628;2022-11-20T14:52:24;8.10;99.90
15131;DHT22;7666;50.920;4.628;2022-11-20T14:55:13;8.20;99.90
15131;DHT22;7666;50.920;4.628;2022-11-20T14:58:25;8.20;99.90
15131;DHT22;7666;50.920;4.628;2022-11-20T15:01:12;8.20;99.90
15131;DHT22;7666;50.920;4.628;2022-11-20T15:04:11;8.20;99.90
15131;DHT22;7666;50.920;4.628;2022-11-20T15:06:59;8.20;99.90
15131;DHT22;7666;50.920;4.628;2022-11-20T15:09:45;8.20;99.90
15131;DHT22;7666;50.920;4.628;2022-11-20T15:12:33;8.20;99.90
15131;DHT22;7666;50.920;4.628;2022-11-20T15:15:40;8.20;99.90
15131;DHT22;7666;50.920;4.628;2022-11-20T15:18:31;8.20;99.90
15131;DHT22;7666;50.920;4.628;2022-11-20T15:21:19;8.20;99.90
15131;DHT22;7666;50.920;4.628;2022-11-20T15:24:08;8.20;99.90
15131;DHT22;7666;50.920;4.628;2022-11-20T15:26:54;8.20;99.90
15131;DHT22;7666;50.920;4.628;2022-11-20T15:29:41;8.30;99.90
15131;DHT22;7666;50.920;4.628;2022-11-20T15:32:28;8.30;99.90
15131;DHT22;7666;50.920;4.628;2022-11-20T15:35:15;8.30;99.90
15131;DHT22;7666;50.920;4.628;2022-11-20T15:38:01;8.30;99.90
15131;DHT22;7666;50.920;4.628;2022-11-20T15:40:47;8.40;99.90
15131;DHT22;7666;50.920;4.628;2022-11-20T15:43:33;8.40;99.90
15131;DHT22;7666;50.920;4.628;2022-11-20T15:46:25;8.50;99.90
15131;DHT22;7666;50.920;4.628;2022-11-20T15:49:14;8.50;99.90
15131;DHT22;7666;50.920;4.628;2022-11-20T15:52:00;8.50;99.90
15131;DHT22;7666;50.920;4.628;2022-11-20T15:54:46;8.50;99.90
15131;DHT22;7666;50.920;4.628;2022-11-20T15:57:32;8.50;99.90
15131;DHT22;7666;50.920;4.628;2022-11-20T16:00:18;8.60;99.90
15131;DHT22;7666;50.920;4.628;2022-11-20T16:03:04;8.60;99.90
15131;DHT22;7666;50.920;4.628;2022-11-20T16:05:50;8.60;99.90
15131;DHT22;7666;50.920;4.628;2022-11-20T16:08:36;8.50;99.90
15131;DHT22;7666;50.920;4.628;2022-11-20T16:11:22;8.50;99.90
15131;DHT22;7666;50.920;4.628;2022-11-20T16:14:10;8.50;99.90
15131;DHT22;7666;50.920;4.628;2022-11-20T16:17:15;8.40;99.90
15131;DHT22;7666;50.920;4.628;2022-11-20T16:20:21;8.40;99.90
15131;DHT22;7666;50.920;4.628;2022-11-20T16:23:07;8.40;99.90
15131;DHT22;7666;50.920;4.628;2022-11-20T16:25:53;8.40;99.90
15131;DHT22;7666;50.920;4.628;2022-11-20T16:28:39;8.40;99.90
15131;DHT22;7666;50.920;4.628;2022-11-20T16:31:26;8.40;99.90
15131;DHT22;7666;50.920;4.628;2022-11-20T16:34:12;8.40;99.90
15131;DHT22;7666;50.920;4.628;2022-11-20T16:36:58;8.40;99.90
15131;DHT22;7666;50.920;4.628;2022-11-20T16:39:44;8.40;99.90
15131;DHT22;7666;50.920;4.628;2022-11-20T16:42:33;8.40;99.90
15131;DHT22;7666;50.920;4.628;2022-11-20T16:45:19;8.40;99.90
15131;DHT22;7666;50.920;4.628;2022-11-20T16:48:05;8.40;99.90
15131;DHT22;7666;50.920;4.628;2022-11-20T16:50:52;8.40;99.90
15131;DHT22;7666;50.920;4.628;2022-11-20T16:53:38;8.40;99.90
15131;DHT22;7666;50.920;4.628;2022-11-20T16:56:26;8.50;99.90
15131;DHT22;7666;50.920;4.628;2022-11-20T16:59:12;8.50;99.90
15131;DHT22;7666;50.920;4.628;2022-11-20T17:01:58;8.50;99.90
15131;DHT22;7666;50.920;4.628;2022-11-20T17:04:44;8.60;99.90
15131;DHT22;7666;50.920;4.628;2022-11-20T17:07:30;8.60;99.90
15131;DHT22;7666;50.920;4.628;2022-11-20T17:10:16;8.60;99.90
15131;DHT22;7666;50.920;4.628;2022-11-20T17:13:02;8.60;99.90
15131;DHT22;7666;50.920;4.628;2022-11-20T17:15:48;8.60;99.90
15131;DHT22;7666;50.920;4.628;2022-11-20T17:18:34;8.60;99.90
15131;DHT22;7666;50.920;4.628;2022-11-20T17:21:20;8.60;99.90
15131;DHT22;7666;50.920;4.628;2022-11-20T17:24:10;8.60;99.90
15131;DHT22;7666;50.920;4.628;2022-11-20T17:26:56;8.60;99.90
15131;DHT22;7666;50.920;4.628;2022-11-20T17:29:42;8.70;99.90
15131;DHT22;7666;50.920;4.628;2022-11-20T17:32:28;8.70;99.90
15131;DHT22;7666;50.920;4.628;2022-11-20T17:35:14;8.60;99.90
15131;DHT22;7666;50.920;4.628;2022-11-20T17:38:00;8.60;99.90
15131;DHT22;7666;50.920;4.628;2022-11-20T17:40:45;8.50;99.90
15131;DHT22;7666;50.920;4.628;2022-11-20T17:43:32;8.40;99.90
15131;DHT22;7666;50.920;4.628;2022-11-20T17:46:20;8.40;99.90
15131;DHT22;7666;50.920;4.628;2022-11-20T17:49:06;8.30;99.90
15131;DHT22;7666;50.920;4.628;2022-11-20T17:51:53;8.20;99.90
15131;DHT22;7666;50.920;4.628;2022-11-20T17:54:39;8.10;99.90
15131;DHT22;7666;50.920;4.628;2022-11-20T17:57:25;8.00;99.90
15131;DHT22;7666;50.920;4.628;2022-11-20T18:00:29;8.00;99.90
15131;DHT22;7666;50.920;4.628;2022-11-20T18:03:16;8.00;99.90
15131;DHT22;7666;50.920;4.628;2022-11-20T18:06:16;8.00;99.90
15131;DHT22;7666;50.920;4.628;2022-11-20T18:09:03;8.00;99.90
15131;DHT22;7666;50.920;4.628;2022-11-20T18:11:50;8.10;99.90
15131;DHT22;7666;50.920;4.628;2022-11-20T18:14:36;8.10;99.90
15131;DHT22;7666;50.920;4.628;2022-11-20T18:17:22;8.10;99.90
15131;DHT22;7666;50.920;4.628;2022-11-20T18:20:08;8.10;99.90
15131;DHT22;7666;50.920;4.628;2022-11-20T18:22:55;8.10;99.90
15131;DHT22;7666;50.920;4.628;2022-11-20T18:25:41;8.00;99.90
15131;DHT22;7666;50.920;4.628;2022-11-20T18:28:29;8.00;99.90
15131;DHT22;7666;50.920;4.628;2022-11-20T18:31:15;8.00;99.90
15131;DHT22;7666;50.920;4.628;2022-11-20T18:34:01;8.00;99.90
15131;DHT22;7666;50.920;4.628;2022-11-20T18:36:47;8.10;99.90
15131;DHT22;7666;50.920;4.628;2022-11-20T18:39:33;8.20;99.90
15131;DHT22;7666;50.920;4.628;2022-11-20T18:42:19;8.20;99.90
15131;DHT22;7666;50.920;4.628;2022-11-20T18:45:23;8.20;99.90
15131;DHT22;7666;50.920;4.628;2022-11-20T18:48:09;8.10;99.90
15131;DHT22;7666;50.920;4.628;2022-11-20T18:51:06;8.10;99.90
15131;DHT22;7666;50.920;4.628;2022-11-20T18:53:52;8.00;99.90
15131;DHT22;7666;50.920;4.628;2022-11-20T18:56:39;8.00;99.90
15131;DHT22;7666;50.920;4.628;2022-11-20T18:59:25;8.00;99.90
15131;DHT22;7666;50.920;4.628;2022-11-20T19:02:16;8.00;99.90
15131;DHT22;7666;50.920;4.628;2022-11-20T19:05:02;8.00;99.90
15131;DHT22;7666;50.920;4.628;2022-11-20T19:07:48;8.00;99.90
15131;DHT22;7666;50.920;4.628;2022-11-20T19:10:34;8.00;99.90
15131;DHT22;7666;50.920;4.628;2022-11-20T19:13:22;8.10;99.90
15131;DHT22;7666;50.920;4.628;2022-11-20T19:16:19;8.10;99.90
15131;DHT22;7666;50.920;4.628;2022-11-20T19:19:07;8.00;99.90
15131;DHT22;7666;50.920;4.628;2022-11-20T19:21:53;8.00;99.90
15131;DHT22;7666;50.920;4.628;2022-11-20T19:24:39;8.00;99.90
15131;DHT22;7666;50.920;4.628;2022-11-20T19:27:25;8.10;99.90
15131;DHT22;7666;50.920;4.628;2022-11-20T19:30:11;8.10;99.90
15131;DHT22;7666;50.920;4.628;2022-11-20T19:32:57;8.10;99.90
15131;DHT22;7666;50.920;4.628;2022-11-20T19:35:43;8.10;99.90
15131;DHT22;7666;50.920;4.628;2022-11-20T19:38:29;8.10;99.90
15131;DHT22;7666;50.920;4.628;2022-11-20T19:41:17;8.10;99.90
15131;DHT22;7666;50.920;4.628;2022-11-20T19:44:08;8.00;99.90
15131;DHT22;7666;50.920;4.628;2022-11-20T19:46:55;8.00;99.90
15131;DHT22;7666;50.920;4.628;2022-11-20T19:49:42;7.90;99.90